sensor_id;sensor_type;location;lat;lon;timestamp;temperature;humidity
56478;DHT22;42382;53.210;5.772;2024-03-07T00:01:05;4.30;92.40
56478;DHT22;42382;53.210;5.772;2024-03-07T00:03:31;4.30;92.40
56478;DHT22;42382;53.210;5.772;2024-03-07T00:05:57;4.30;92.40
56478;DHT22;42382;53.210;5.772;2024-03-07T00:08:22;4.30;92.40
56478;DHT22;42382;53.210;5.772;2024-03-07T00:10:48;4.30;92.40
56478;DHT22;42382;53.210;5.772;2024-03-07T00:13:14;4.30;92.40
56478;DHT22;42382;53.210;5.772;2024-03-07T00:15:40;4.30;92.40
56478;DHT22;42382;53.210;5.772;2024-03-07T00:18:07;4.30;92.40
56478;DHT22;42382;53.210;5.772;2024-03-07T00:20:32;4.30;92.40
56478;DHT22;42382;53.210;5.772;2024-03-07T00:22:58;4.30;92.50
56478;DHT22;42382;53.210;5.772;2024-03-07T00:25:23;4.30;92.40
56478;DHT22;42382;53.210;5.772;2024-03-07T00:27:49;4.20;92.40
56478;DHT22;42382;53.210;5.772;2024-03-07T00:30:18;4.20;92.50
56478;DHT22;42382;53.210;5.772;2024-03-07T00:32:44;4.20;92.50
56478;DHT22;42382;53.210;5.772;2024-03-07T00:35:10;4.20;92.50
56478;DHT22;42382;53.210;5.772;2024-03-07T00:37:36;4.30;92.50
56478;DHT22;42382;53.210;5.772;2024-03-07T00:40:02;4.30;92.50
56478;DHT22;42382;53.210;5.772;2024-03-07T00:42:28;4.20;92.50
56478;DHT22;42382;53.210;5.772;2024-03-07T00:44:54;4.20;92.50
56478;DHT22;42382;53.210;5.772;2024-03-07T00:47:19;4.20;92.50
56478;DHT22;42382;53.210;5.772;2024-03-07T00:49:45;4.20;92.50
56478;DHT22;42382;53.210;5.772;2024-03-07T00:52:14;4.20;92.60
56478;DHT22;42382;53.210;5.772;2024-03-07T00:54:41;4.20;92.50
56478;DHT22;42382;53.210;5.772;2024-03-07T00:57:07;4.20;92.60
56478;DHT22;42382;53.210;5.772;2024-03-07T00:59:33;4.10;92.60
56478;DHT22;42382;53.210;5.772;2024-03-07T01:01:59;4.20;92.60
56478;DHT22;42382;53.210;5.772;2024-03-07T01:04:25;4.20;92.60
56478;DHT22;42382;53.210;5.772;2024-03-07T01:06:59;4.10;92.60
56478;DHT22;42382;53.210;5.772;2024-03-07T01:09:26;4.10;92.60
56478;DHT22;42382;53.210;5.772;2024-03-07T01:11:54;4.10;92.60
56478;DHT22;42382;53.210;5.772;2024-03-07T01:14:21;4.00;92.60
56478;DHT22;42382;53.210;5.772;2024-03-07T01:16:46;4.00;92.60
56478;DHT22;42382;53.210;5.772;2024-03-07T01:19:12;4.00;92.60
56478;DHT22;42382;53.210;5.772;2024-03-07T01:21:38;4.00;92.60
56478;DHT22;42382;53.210;5.772;2024-03-07T01:24:06;4.00;92.60
56478;DHT22;42382;53.210;5.772;2024-03-07T01:26:32;4.00;92.60
56478;DHT22;42382;53.210;5.772;2024-03-07T01:28:59;3.90;92.60
56478;DHT22;42382;53.210;5.772;2024-03-07T01:31:24;3.90;92.60
56478;DHT22;42382;53.210;5.772;2024-03-07T01:33:50;3.90;92.60
56478;DHT22;42382;53.210;5.772;2024-03-07T01:36:16;3.90;92.60
56478;DHT22;42382;53.210;5.772;2024-03-07T01:38:45;3.90;92.60
56478;DHT22;42382;53.210;5.772;2024-03-07T01:41:10;3.90;92.60
56478;DHT22;42382;53.210;5.772;2024-03-07T01:43:36;3.90;92.60
56478;DHT22;42382;53.210;5.772;2024-03-07T01:46:02;3.90;92.60
56478;DHT22;42382;53.210;5.772;2024-03-07T01:48:29;3.90;92.70
56478;DHT22;42382;53.210;5.772;2024-03-07T01:51:00;3.80;92.70
56478;DHT22;42382;53.210;5.772;2024-03-07T01:53:27;3.80;92.60
56478;DHT22;42382;53.210;5.772;2024-03-07T01:55:53;3.80;92.70
56478;DHT22;42382;53.210;5.772;2024-03-07T01:58:22;3.80;92.70
56478;DHT22;42382;53.210;5.772;2024-03-07T02:00:49;3.80;92.70
56478;DHT22;42382;53.210;5.772;2024-03-07T02:03:15;3.70;92.70
56478;DHT22;42382;53.210;5.772;2024-03-07T02:05:41;3.70;92.70
56478;DHT22;42382;53.210;5.772;2024-03-07T02:08:07;3.70;92.70
56478;DHT22;42382;53.210;5.772;2024-03-07T02:10:32;3.70;92.60
56478;DHT22;42382;53.210;5.772;2024-03-07T02:12:58;3.70;92.60
56478;DHT22;42382;53.210;5.772;2024-03-07T02:15:24;3.60;92.60
56478;DHT22;42382;53.210;5.772;2024-03-07T02:17:49;3.60;92.60
56478;DHT22;42382;53.210;5.772;2024-03-07T02:20:15;3.60;92.60
56478;DHT22;42382;53.210;5.772;2024-03-07T02:22:41;3.60;92.60
56478;DHT22;42382;53.210;5.772;2024-03-07T02:25:07;3.60;92.60
56478;DHT22;42382;53.210;5.772;2024-03-07T02:27:41;3.60;92.60
56478;DHT22;42382;53.210;5.772;2024-03-07T02:30:07;3.60;92.60
56478;DHT22;42382;53.210;5.772;2024-03-07T02:32:37;3.60;92.60
56478;DHT22;42382;53.210;5.772;2024-03-07T02:35:06;3.50;92.60
56478;DHT22;42382;53.210;5.772;2024-03-07T02:37:33;3.50;92.60
56478;DHT22;42382;53.210;5.772;2024-03-07T02:39:59;3.50;92.60
56478;DHT22;42382;53.210;5.772;2024-03-07T02:42:25;3.50;92.50
56478;DHT22;42382;53.210;5.772;2024-03-07T02:44:51;3.50;92.50
56478;DHT22;42382;53.210;5.772;2024-03-07T02:47:18;3.40;92.50
56478;DHT22;42382;53.210;5.772;2024-03-07T02:49:43;3.40;92.50
56478;DHT22;42382;53.210;5.772;2024-03-07T02:52:09;3.40;92.50
56478;DHT22;42382;53.210;5.772;2024-03-07T02:54:35;3.40;92.50
56478;DHT22;42382;53.210;5.772;2024-03-07T02:57:01;3.40;92.50
56478;DHT22;42382;53.210;5.772;2024-03-07T02:59:27;3.40;92.50
56478;DHT22;42382;53.210;5.772;2024-03-07T03:01:52;3.40;92.50
56478;DHT22;42382;53.210;5.772;2024-03-07T03:04:18;3.30;92.50
56478;DHT22;42382;53.210;5.772;2024-03-07T03:06:44;3.30;92.50
56478;DHT22;42382;53.210;5.772;2024-03-07T03:09:11;3.30;92.50
56478;DHT22;42382;53.210;5.772;2024-03-07T03:11:46;3.30;92.40
56478;DHT22;42382;53.210;5.772;2024-03-07T03:14:12;3.30;92.50
56478;DHT22;42382;53.210;5.772;2024-03-07T03:16:42;3.30;92.50
56478;DHT22;42382;53.210;5.772;2024-03-07T03:19:08;3.20;92.50
56478;DHT22;42382;53.210;5.772;2024-03-07T03:21:34;3.20;92.50
56478;DHT22;42382;53.210;5.772;2024-03-07T03:24:00;3.20;92.50
56478;DHT22;42382;53.210;5.772;2024-03-07T03:26:28;3.10;92.40
56478;DHT22;42382;53.210;5.772;2024-03-07T03:28:53;3.10;92.40
56478;DHT22;42382;53.210;5.772;2024-03-07T03:31:19;3.10;92.40
56478;DHT22;42382;53.210;5.772;2024-03-07T03:33:45;3.10;92.40
56478;DHT22;42382;53.210;5.772;2024-03-07T03:36:11;3.10;92.40
56478;DHT22;42382;53.210;5.772;2024-03-07T03:38:36;3.10;92.40
56478;DHT22;42382;53.210;5.772;2024-03-07T03:41:02;3.10;92.40
56478;DHT22;42382;53.210;5.772;2024-03-07T03:43:33;3.10;92.40
56478;DHT22;42382;53.210;5.772;2024-03-07T03:45:58;3.00;92.40
56478;DHT22;42382;53.210;5.772;2024-03-07T03:48:24;3.00;92.50
56478;DHT22;42382;53.210;5.772;2024-03-07T03:50:49;3.00;92.40
56478;DHT22;42382;53.210;5.772;2024-03-07T03:53:15;3.00;92.40
56478;DHT22;42382;53.210;5.772;2024-03-07T03:55:44;2.90;92.40
56478;DHT22;42382;53.210;5.772;2024-03-07T03:58:09;3.00;92.50
56478;DHT22;42382;53.210;5.772;2024-03-07T04:00:35;2.90;92.40
56478;DHT22;42382;53.210;5.772;2024-03-07T04:03:01;2.90;92.40
56478;DHT22;42382;53.210;5.772;2024-03-07T04:05:29;2.90;92.40
56478;DHT22;42382;53.210;5.772;2024-03-07T04:07:55;2.90;92.50
56478;DHT22;42382;53.210;5.772;2024-03-07T04:10:22;2.90;92.50
56478;DHT22;42382;53.210;5.772;2024-03-07T04:12:47;2.80;92.50
56478;DHT22;42382;53.210;5.772;2024-03-07T04:15:15;2.80;92.50
56478;DHT22;42382;53.210;5.772;2024-03-07T04:17:42;2.80;92.50
56478;DHT22;42382;53.210;5.772;2024-03-07T04:20:08;2.80;92.50
56478;DHT22;42382;53.210;5.772;2024-03-07T04:22:38;2.80;92.50
56478;DHT22;42382;53.210;5.772;2024-03-07T04:25:05;2.80;92.50
56478;DHT22;42382;53.210;5.772;2024-03-07T04:27:38;2.80;92.50
56478;DHT22;42382;53.210;5.772;2024-03-07T04:30:07;2.80;92.50
56478;DHT22;42382;53.210;5.772;2024-03-07T04:32:36;2.70;92.50
56478;DHT22;42382;53.210;5.772;2024-03-07T04:35:02;2.70;92.50
56478;DHT22;42382;53.210;5.772;2024-03-07T04:37:29;2.70;92.50
56478;DHT22;42382;53.210;5.772;2024-03-07T04:39:55;2.70;92.50
56478;DHT22;42382;53.210;5.772;2024-03-07T04:42:21;2.60;92.50
56478;DHT22;42382;53.210;5.772;2024-03-07T04:44:46;2.60;92.50
56478;DHT22;42382;53.210;5.772;2024-03-07T04:47:12;2.60;92.50
56478;DHT22;42382;53.210;5.772;2024-03-07T04:49:37;2.60;92.50
56478;DHT22;42382;53.210;5.772;2024-03-07T04:52:03;2.50;92.40
56478;DHT22;42382;53.210;5.772;2024-03-07T04:54:30;2.50;92.50
56478;DHT22;42382;53.210;5.772;2024-03-07T04:56:57;2.40;92.50
56478;DHT22;42382;53.210;5.772;2024-03-07T04:59:22;2.50;92.50
56478;DHT22;42382;53.210;5.772;2024-03-07T05:01:49;2.50;92.50
56478;DHT22;42382;53.210;5.772;2024-03-07T05:04:18;2.50;92.50
56478;DHT22;42382;53.210;5.772;2024-03-07T05:06:44;2.40;92.50
56478;DHT22;42382;53.210;5.772;2024-03-07T05:09:13;2.40;92.50
56478;DHT22;42382;53.210;5.772;2024-03-07T05:11:48;2.40;92.50
56478;DHT22;42382;53.210;5.772;2024-03-07T05:14:14;2.40;92.50
56478;DHT22;42382;53.210;5.772;2024-03-07T05:16:42;2.30;92.50
56478;DHT22;42382;53.210;5.772;2024-03-07T05:19:09;2.30;92.50
56478;DHT22;42382;53.210;5.772;2024-03-07T05:21:34;2.30;92.50
56478;DHT22;42382;53.210;5.772;2024-03-07T05:24:05;2.30;92.60
56478;DHT22;42382;53.210;5.772;2024-03-07T05:26:31;2.30;92.60
56478;DHT22;42382;53.210;5.772;2024-03-07T05:29:06;2.30;92.60
56478;DHT22;42382;53.210;5.772;2024-03-07T05:31:37;2.30;92.60
56478;DHT22;42382;53.210;5.772;2024-03-07T05:34:04;2.30;92.60
56478;DHT22;42382;53.210;5.772;2024-03-07T05:36:34;2.20;92.60
56478;DHT22;42382;53.210;5.772;2024-03-07T05:39:00;2.20;92.60
56478;DHT22;42382;53.210;5.772;2024-03-07T05:41:28;2.20;92.60
56478;DHT22;42382;53.210;5.772;2024-03-07T05:43:55;2.20;92.60
56478;DHT22;42382;53.210;5.772;2024-03-07T05:46:22;2.10;92.60
56478;DHT22;42382;53.210;5.772;2024-03-07T05:48:47;2.20;92.60
56478;DHT22;42382;53.210;5.772;2024-03-07T05:51:20;2.10;92.60
56478;DHT22;42382;53.210;5.772;2024-03-07T05:53:45;2.10;92.60
56478;DHT22;42382;53.210;5.772;2024-03-07T05:56:12;2.10;92.60
56478;DHT22;42382;53.210;5.772;2024-03-07T05:58:37;2.10;92.60
56478;DHT22;42382;53.210;5.772;2024-03-07T06:01:03;2.10;92.70
56478;DHT22;42382;53.210;5.772;2024-03-07T06:03:28;2.10;92.70
56478;DHT22;42382;53.210;5.772;2024-03-07T06:05:54;2.00;92.70
56478;DHT22;42382;53.210;5.772;2024-03-07T06:08:20;2.00;92.70
56478;DHT22;42382;53.210;5.772;2024-03-07T06:10:47;2.00;92.70
56478;DHT22;42382;53.210;5.772;2024-03-07T06:13:14;2.00;92.70
56478;DHT22;42382;53.210;5.772;2024-03-07T06:15:43;2.00;92.70
56478;DHT22;42382;53.210;5.772;2024-03-07T06:18:09;2.00;92.70
56478;DHT22;42382;53.210;5.772;2024-03-07T06:20:36;2.00;92.70
56478;DHT22;42382;53.210;5.772;2024-03-07T06:23:03;2.00;92.80
56478;DHT22;42382;53.210;5.772;2024-03-07T06:25:32;1.90;92.80
56478;DHT22;42382;53.210;5.772;2024-03-07T06:28:13;1.90;92.70
56478;DHT22;42382;53.210;5.772;2024-03-07T06:30:40;1.90;92.70
56478;DHT22;42382;53.210;5.772;2024-03-07T06:33:06;1.90;92.80
56478;DHT22;42382;53.210;5.772;2024-03-07T06:35:33;1.90;92.80
56478;DHT22;42382;53.210;5.772;2024-03-07T06:38:05;1.90;92.80
56478;DHT22;42382;53.210;5.772;2024-03-07T06:40:35;1.90;92.90
56478;DHT22;42382;53.210;5.772;2024-03-07T06:43:01;2.00;92.90
56478;DHT22;42382;53.210;5.772;2024-03-07T06:45:29;2.00;93.00
56478;DHT22;42382;53.210;5.772;2024-03-07T06:47:55;2.10;93.00
56478;DHT22;42382;53.210;5.772;2024-03-07T06:50:21;2.10;93.10
56478;DHT22;42382;53.210;5.772;2024-03-07T06:52:47;2.10;93.10
56478;DHT22;42382;53.210;5.772;2024-03-07T06:55:16;2.20;93.10
56478;DHT22;42382;53.210;5.772;2024-03-07T06:57:43;2.30;93.10
56478;DHT22;42382;53.210;5.772;2024-03-07T07:00:10;2.30;93.10
56478;DHT22;42382;53.210;5.772;2024-03-07T07:02:40;2.30;93.10
56478;DHT22;42382;53.210;5.772;2024-03-07T07:05:07;2.40;93.20
56478;DHT22;42382;53.210;5.772;2024-03-07T07:07:40;2.40;93.20
56478;DHT22;42382;53.210;5.772;2024-03-07T07:10:09;2.50;93.30
56478;DHT22;42382;53.210;5.772;2024-03-07T07:12:45;2.50;93.20
56478;DHT22;42382;53.210;5.772;2024-03-07T07:15:12;2.60;93.20
56478;DHT22;42382;53.210;5.772;2024-03-07T07:17:38;2.60;93.20
56478;DHT22;42382;53.210;5.772;2024-03-07T07:20:04;2.60;93.20
56478;DHT22;42382;53.210;5.772;2024-03-07T07:22:39;2.70;93.20
56478;DHT22;42382;53.210;5.772;2024-03-07T07:25:05;2.70;93.20
56478;DHT22;42382;53.210;5.772;2024-03-07T07:27:35;2.80;93.20
56478;DHT22;42382;53.210;5.772;2024-03-07T07:30:01;2.80;93.20
56478;DHT22;42382;53.210;5.772;2024-03-07T07:32:26;2.80;93.20
56478;DHT22;42382;53.210;5.772;2024-03-07T07:34:53;2.90;93.20
56478;DHT22;42382;53.210;5.772;2024-03-07T07:37:19;3.00;93.20
56478;DHT22;42382;53.210;5.772;2024-03-07T07:39:45;3.10;93.20
56478;DHT22;42382;53.210;5.772;2024-03-07T07:42:11;3.10;93.20
56478;DHT22;42382;53.210;5.772;2024-03-07T07:44:37;3.20;93.20
56478;DHT22;42382;53.210;5.772;2024-03-07T07:47:02;3.20;93.20
56478;DHT22;42382;53.210;5.772;2024-03-07T07:49:29;3.30;93.20
56478;DHT22;42382;53.210;5.772;2024-03-07T07:51:55;3.30;93.20
56478;DHT22;42382;53.210;5.772;2024-03-07T07:54:20;3.40;93.20
56478;DHT22;42382;53.210;5.772;2024-03-07T07:56:46;3.50;93.20
56478;DHT22;42382;53.210;5.772;2024-03-07T07:59:13;3.50;93.10
56478;DHT22;42382;53.210;5.772;2024-03-07T08:01:39;3.60;93.10
56478;DHT22;42382;53.210;5.772;2024-03-07T08:04:05;3.70;93.00
56478;DHT22;42382;53.210;5.772;2024-03-07T08:06:30;3.70;93.00
56478;DHT22;42382;53.210;5.772;2024-03-07T08:08:56;3.70;92.90
56478;DHT22;42382;53.210;5.772;2024-03-07T08:11:21;3.90;93.00
56478;DHT22;42382;53.210;5.772;2024-03-07T08:13:47;3.90;93.00
56478;DHT22;42382;53.210;5.772;2024-03-07T08:16:16;4.00;93.00
56478;DHT22;42382;53.210;5.772;2024-03-07T08:18:42;4.10;92.90
56478;DHT22;42382;53.210;5.772;2024-03-07T08:21:07;4.10;92.80
56478;DHT22;42382;53.210;5.772;2024-03-07T08:23:36;4.20;92.80
56478;DHT22;42382;53.210;5.772;2024-03-07T08:26:02;4.20;92.80
56478;DHT22;42382;53.210;5.772;2024-03-07T08:28:28;4.30;92.80
56478;DHT22;42382;53.210;5.772;2024-03-07T08:30:53;4.40;92.80
56478;DHT22;42382;53.210;5.772;2024-03-07T08:33:20;4.50;92.70
56478;DHT22;42382;53.210;5.772;2024-03-07T08:35:47;4.40;92.60
56478;DHT22;42382;53.210;5.772;2024-03-07T08:38:13;4.40;92.50
56478;DHT22;42382;53.210;5.772;2024-03-07T08:40:39;4.40;92.30
56478;DHT22;42382;53.210;5.772;2024-03-07T08:43:05;4.40;92.30
56478;DHT22;42382;53.210;5.772;2024-03-07T08:45:32;4.30;92.10
56478;DHT22;42382;53.210;5.772;2024-03-07T08:47:59;4.30;92.20
56478;DHT22;42382;53.210;5.772;2024-03-07T08:50:25;4.30;92.10
56478;DHT22;42382;53.210;5.772;2024-03-07T08:52:51;4.30;92.10
56478;DHT22;42382;53.210;5.772;2024-03-07T08:55:22;4.20;92.10
56478;DHT22;42382;53.210;5.772;2024-03-07T08:57:48;4.20;92.10
56478;DHT22;42382;53.210;5.772;2024-03-07T09:00:15;4.10;92.20
56478;DHT22;42382;53.210;5.772;2024-03-07T09:02:52;4.10;92.20
56478;DHT22;42382;53.210;5.772;2024-03-07T09:05:20;4.10;92.20
56478;DHT22;42382;53.210;5.772;2024-03-07T09:07:46;4.10;92.10
56478;DHT22;42382;53.210;5.772;2024-03-07T09:10:13;4.10;92.00
56478;DHT22;42382;53.210;5.772;2024-03-07T09:12:40;4.10;91.90
56478;DHT22;42382;53.210;5.772;2024-03-07T09:15:06;4.10;91.90
56478;DHT22;42382;53.210;5.772;2024-03-07T09:17:32;4.10;92.00
56478;DHT22;42382;53.210;5.772;2024-03-07T09:19:58;4.10;92.00
56478;DHT22;42382;53.210;5.772;2024-03-07T09:22:24;4.10;91.80
56478;DHT22;42382;53.210;5.772;2024-03-07T09:24:49;4.10;91.80
56478;DHT22;42382;53.210;5.772;2024-03-07T09:27:15;4.10;91.80
56478;DHT22;42382;53.210;5.772;2024-03-07T09:29:40;4.10;91.80
56478;DHT22;42382;53.210;5.772;2024-03-07T09:32:06;4.10;91.80
56478;DHT22;42382;53.210;5.772;2024-03-07T09:34:35;4.10;91.90
56478;DHT22;42382;53.210;5.772;2024-03-07T09:37:03;4.20;91.90
56478;DHT22;42382;53.210;5.772;2024-03-07T09:39:29;4.20;91.90
56478;DHT22;42382;53.210;5.772;2024-03-07T09:41:57;4.30;91.80
56478;DHT22;42382;53.210;5.772;2024-03-07T09:44:24;4.30;91.70
56478;DHT22;42382;53.210;5.772;2024-03-07T09:46:54;4.50;91.90
56478;DHT22;42382;53.210;5.772;2024-03-07T09:49:21;4.70;91.90
56478;DHT22;42382;53.210;5.772;2024-03-07T09:51:51;4.90;92.00
56478;DHT22;42382;53.210;5.772;2024-03-07T09:54:21;5.00;91.90
56478;DHT22;42382;53.210;5.772;2024-03-07T09:56:53;5.10;91.90
56478;DHT22;42382;53.210;5.772;2024-03-07T09:59:20;5.10;91.50
56478;DHT22;42382;53.210;5.772;2024-03-07T10:01:56;5.20;91.10
56478;DHT22;42382;53.210;5.772;2024-03-07T10:04:37;5.40;91.40
56478;DHT22;42382;53.210;5.772;2024-03-07T10:07:03;5.70;91.40
56478;DHT22;42382;53.210;5.772;2024-03-07T10:09:29;5.80;90.80
56478;DHT22;42382;53.210;5.772;2024-03-07T10:11:58;5.80;90.50
56478;DHT22;42382;53.210;5.772;2024-03-07T10:14:24;5.80;90.20
56478;DHT22;42382;53.210;5.772;2024-03-07T10:16:50;5.80;90.00
56478;DHT22;42382;53.210;5.772;2024-03-07T10:19:16;5.70;89.90
56478;DHT22;42382;53.210;5.772;2024-03-07T10:21:41;5.60;89.80
56478;DHT22;42382;53.210;5.772;2024-03-07T10:24:08;5.50;89.40
56478;DHT22;42382;53.210;5.772;2024-03-07T10:26:39;5.50;89.80
56478;DHT22;42382;53.210;5.772;2024-03-07T10:29:05;5.50;89.90
56478;DHT22;42382;53.210;5.772;2024-03-07T10:31:34;5.40;89.60
56478;DHT22;42382;53.210;5.772;2024-03-07T10:34:01;5.50;89.70
56478;DHT22;42382;53.210;5.772;2024-03-07T10:36:28;5.50;89.90
56478;DHT22;42382;53.210;5.772;2024-03-07T10:39:00;5.40;89.70
56478;DHT22;42382;53.210;5.772;2024-03-07T10:41:46;5.40;89.50
56478;DHT22;42382;53.210;5.772;2024-03-07T10:44:20;5.40;89.60
56478;DHT22;42382;53.210;5.772;2024-03-07T10:46:53;5.40;89.70
56478;DHT22;42382;53.210;5.772;2024-03-07T10:49:20;5.40;89.70
56478;DHT22;42382;53.210;5.772;2024-03-07T10:52:17;5.40;89.70
56478;DHT22;42382;53.210;5.772;2024-03-07T11:00:11;5.30;88.90
56478;DHT22;42382;53.210;5.772;2024-03-07T11:02:57;5.30;88.60
56478;DHT22;42382;53.210;5.772;2024-03-07T11:05:26;5.30;89.00
56478;DHT22;42382;53.210;5.772;2024-03-07T11:07:58;5.20;88.90
56478;DHT22;42382;53.210;5.772;2024-03-07T11:10:25;5.10;88.90
56478;DHT22;42382;53.210;5.772;2024-03-07T11:12:51;5.00;88.50
56478;DHT22;42382;53.210;5.772;2024-03-07T11:15:18;5.00;88.80
56478;DHT22;42382;53.210;5.772;2024-03-07T11:17:47;5.00;88.90
56478;DHT22;42382;53.210;5.772;2024-03-07T11:22:46;5.20;89.10
56478;DHT22;42382;53.210;5.772;2024-03-07T11:25:12;5.20;88.50
56478;DHT22;42382;53.210;5.772;2024-03-07T11:27:38;5.20;88.50
56478;DHT22;42382;53.210;5.772;2024-03-07T11:30:05;5.30;88.60
56478;DHT22;42382;53.210;5.772;2024-03-07T11:32:38;5.40;88.70
56478;DHT22;42382;53.210;5.772;2024-03-07T11:35:13;5.40;88.50
56478;DHT22;42382;53.210;5.772;2024-03-07T11:37:43;5.40;87.90
56478;DHT22;42382;53.210;5.772;2024-03-07T11:40:13;5.40;87.60
56478;DHT22;42382;53.210;5.772;2024-03-07T11:43:00;5.40;87.40
56478;DHT22;42382;53.210;5.772;2024-03-07T11:45:30;5.50;87.30
56478;DHT22;42382;53.210;5.772;2024-03-07T11:47:59;5.60;87.50
56478;DHT22;42382;53.210;5.772;2024-03-07T11:50:29;5.70;87.00
56478;DHT22;42382;53.210;5.772;2024-03-07T11:53:01;5.70;87.00
56478;DHT22;42382;53.210;5.772;2024-03-07T11:55:27;5.80;86.70
56478;DHT22;42382;53.210;5.772;2024-03-07T11:58:09;6.40;87.10
56478;DHT22;42382;53.210;5.772;2024-03-07T12:00:35;6.60;85.70
56478;DHT22;42382;53.210;5.772;2024-03-07T12:03:01;7.00;85.60
56478;DHT22;42382;53.210;5.772;2024-03-07T12:05:27;7.20;84.70
56478;DHT22;42382;53.210;5.772;2024-03-07T12:07:52;7.30;83.90
56478;DHT22;42382;53.210;5.772;2024-03-07T12:10:19;7.20;83.30
56478;DHT22;42382;53.210;5.772;2024-03-07T12:12:50;7.20;83.60
56478;DHT22;42382;53.210;5.772;2024-03-07T12:15:16;7.20;82.80
56478;DHT22;42382;53.210;5.772;2024-03-07T12:17:45;7.10;83.00
56478;DHT22;42382;53.210;5.772;2024-03-07T12:20:15;7.10;83.60
56478;DHT22;42382;53.210;5.772;2024-03-07T12:23:02;7.20;83.70
56478;DHT22;42382;53.210;5.772;2024-03-07T12:25:46;7.20;83.50
56478;DHT22;42382;53.210;5.772;2024-03-07T12:28:13;7.20;83.20
56478;DHT22;42382;53.210;5.772;2024-03-07T12:30:55;7.10;83.10
56478;DHT22;42382;53.210;5.772;2024-03-07T12:33:22;7.10;82.60
56478;DHT22;42382;53.210;5.772;2024-03-07T12:35:52;7.10;83.40
56478;DHT22;42382;53.210;5.772;2024-03-07T12:38:21;7.10;83.00
56478;DHT22;42382;53.210;5.772;2024-03-07T12:41:04;7.20;83.60
56478;DHT22;42382;53.210;5.772;2024-03-07T12:43:31;7.30;83.50
56478;DHT22;42382;53.210;5.772;2024-03-07T12:45:57;7.30;82.50
56478;DHT22;42382;53.210;5.772;2024-03-07T12:48:24;7.30;82.80
56478;DHT22;42382;53.210;5.772;2024-03-07T12:50:51;7.30;82.90
56478;DHT22;42382;53.210;5.772;2024-03-07T12:53:20;7.40;83.60
56478;DHT22;42382;53.210;5.772;2024-03-07T12:55:47;7.60;84.00
56478;DHT22;42382;53.210;5.772;2024-03-07T12:58:13;7.70;83.70
56478;DHT22;42382;53.210;5.772;2024-03-07T13:00:41;7.80;83.30
56478;DHT22;42382;53.210;5.772;2024-03-07T13:03:07;7.90;83.20
56478;DHT22;42382;53.210;5.772;2024-03-07T13:05:36;8.00;81.70
56478;DHT22;42382;53.210;5.772;2024-03-07T13:08:06;7.80;81.10
56478;DHT22;42382;53.210;5.772;2024-03-07T13:10:46;7.70;81.40
56478;DHT22;42382;53.210;5.772;2024-03-07T13:13:11;7.50;81.80
56478;DHT22;42382;53.210;5.772;2024-03-07T13:15:40;7.40;83.00
56478;DHT22;42382;53.210;5.772;2024-03-07T13:18:08;7.50;83.30
56478;DHT22;42382;53.210;5.772;2024-03-07T13:20:36;7.50;82.80
56478;DHT22;42382;53.210;5.772;2024-03-07T13:23:02;7.50;82.70
56478;DHT22;42382;53.210;5.772;2024-03-07T13:25:29;7.70;82.80
56478;DHT22;42382;53.210;5.772;2024-03-07T13:28:24;7.70;82.20
56478;DHT22;42382;53.210;5.772;2024-03-07T13:30:51;7.90;82.10
56478;DHT22;42382;53.210;5.772;2024-03-07T13:33:20;7.90;82.80
56478;DHT22;42382;53.210;5.772;2024-03-07T13:35:45;7.70;81.00
56478;DHT22;42382;53.210;5.772;2024-03-07T13:38:11;7.70;81.40
56478;DHT22;42382;53.210;5.772;2024-03-07T13:40:39;7.70;82.30
56478;DHT22;42382;53.210;5.772;2024-03-07T13:43:05;7.70;82.10
56478;DHT22;42382;53.210;5.772;2024-03-07T13:45:35;7.70;82.60
56478;DHT22;42382;53.210;5.772;2024-03-07T13:48:09;7.60;83.20
56478;DHT22;42382;53.210;5.772;2024-03-07T13:50:36;7.60;82.80
56478;DHT22;42382;53.210;5.772;2024-03-07T13:53:03;7.60;82.90
56478;DHT22;42382;53.210;5.772;2024-03-07T14:02:39;7.50;82.80
56478;DHT22;42382;53.210;5.772;2024-03-07T14:10:50;7.40;83.00
56478;DHT22;42382;53.210;5.772;2024-03-07T14:16:12;7.40;82.80
56478;DHT22;42382;53.210;5.772;2024-03-07T14:22:02;7.40;83.20
56478;DHT22;42382;53.210;5.772;2024-03-07T14:27:38;7.30;84.00
56478;DHT22;42382;53.210;5.772;2024-03-07T14:33:00;7.30;83.70
56478;DHT22;42382;53.210;5.772;2024-03-07T14:35:39;7.20;84.00
56478;DHT22;42382;53.210;5.772;2024-03-07T14:41:11;7.20;84.10
56478;DHT22;42382;53.210;5.772;2024-03-07T14:43:39;7.10;84.10
56478;DHT22;42382;53.210;5.772;2024-03-07T14:46:06;7.20;84.30
56478;DHT22;42382;53.210;5.772;2024-03-07T14:48:31;7.20;84.60
56478;DHT22;42382;53.210;5.772;2024-03-07T14:50:58;7.20;84.30
56478;DHT22;42382;53.210;5.772;2024-03-07T14:53:24;7.20;84.40
56478;DHT22;42382;53.210;5.772;2024-03-07T14:55:50;7.20;84.40
56478;DHT22;42382;53.210;5.772;2024-03-07T14:58:15;7.20;84.40
56478;DHT22;42382;53.210;5.772;2024-03-07T15:00:42;7.20;84.00
56478;DHT22;42382;53.210;5.772;2024-03-07T15:03:10;7.10;84.00
56478;DHT22;42382;53.210;5.772;2024-03-07T15:05:36;7.00;84.20
56478;DHT22;42382;53.210;5.772;2024-03-07T15:08:02;7.00;84.30
56478;DHT22;42382;53.210;5.772;2024-03-07T15:10:34;6.90;84.50
56478;DHT22;42382;53.210;5.772;2024-03-07T15:13:01;7.00;84.90
56478;DHT22;42382;53.210;5.772;2024-03-07T15:15:28;6.90;84.40
56478;DHT22;42382;53.210;5.772;2024-03-07T15:17:57;6.90;84.50
56478;DHT22;42382;53.210;5.772;2024-03-07T15:20:23;6.90;84.90
56478;DHT22;42382;53.210;5.772;2024-03-07T15:22:53;6.90;84.80
56478;DHT22;42382;53.210;5.772;2024-03-07T15:25:23;6.90;85.00
56478;DHT22;42382;53.210;5.772;2024-03-07T15:27:54;6.90;84.90
56478;DHT22;42382;53.210;5.772;2024-03-07T15:30:22;6.90;84.70
56478;DHT22;42382;53.210;5.772;2024-03-07T15:32:51;6.80;84.60
56478;DHT22;42382;53.210;5.772;2024-03-07T15:35:17;6.90;84.90
56478;DHT22;42382;53.210;5.772;2024-03-07T15:37:47;6.80;84.40
56478;DHT22;42382;53.210;5.772;2024-03-07T15:40:15;6.80;84.80
56478;DHT22;42382;53.210;5.772;2024-03-07T15:42:42;6.80;85.10
56478;DHT22;42382;53.210;5.772;2024-03-07T15:45:09;6.80;85.10
56478;DHT22;42382;53.210;5.772;2024-03-07T15:47:58;6.70;84.90
56478;DHT22;42382;53.210;5.772;2024-03-07T15:50:25;6.80;85.30
56478;DHT22;42382;53.210;5.772;2024-03-07T15:52:55;6.70;85.20
56478;DHT22;42382;53.210;5.772;2024-03-07T15:55:21;6.70;85.30
56478;DHT22;42382;53.210;5.772;2024-03-07T15:57:58;6.70;85.20
56478;DHT22;42382;53.210;5.772;2024-03-07T16:00:26;6.70;85.40
56478;DHT22;42382;53.210;5.772;2024-03-07T16:03:03;6.70;85.10
56478;DHT22;42382;53.210;5.772;2024-03-07T16:05:32;6.70;85.30
56478;DHT22;42382;53.210;5.772;2024-03-07T16:08:03;6.70;85.30
56478;DHT22;42382;53.210;5.772;2024-03-07T16:10:34;6.70;85.20
56478;DHT22;42382;53.210;5.772;2024-03-07T16:13:01;6.70;85.40
56478;DHT22;42382;53.210;5.772;2024-03-07T16:15:28;6.80;85.60
56478;DHT22;42382;53.210;5.772;2024-03-07T16:17:54;6.70;85.30
56478;DHT22;42382;53.210;5.772;2024-03-07T16:20:22;6.70;85.30
56478;DHT22;42382;53.210;5.772;2024-03-07T16:22:48;6.80;85.10
56478;DHT22;42382;53.210;5.772;2024-03-07T16:25:19;6.80;85.30